createdAt,value
2018-01-06T00:01:41.785Z,3.70
2018-01-06T00:04:11.349Z,4.00
2018-01-06T00:06:40.895Z,3.63
2018-01-06T00:09:10.503Z,4.03
2018-01-06T00:11:40.040Z,3.37
2018-01-06T00:14:09.614Z,3.63
2018-01-06T00:16:39.189Z,3.30
2018-01-06T00:19:08.726Z,3.70
2018-01-06T00:21:38.302Z,3.87
2018-01-06T00:24:07.854Z,3.80
2018-01-06T00:26:37.397Z,3.90
2018-01-06T00:29:06.946Z,3.90
2018-01-06T00:31:36.510Z,3.10
2018-01-06T00:34:06.110Z,3.27
2018-01-06T00:36:35.680Z,3.50
2018-01-06T00:39:05.249Z,3.17
2018-01-06T00:41:34.791Z,4.40
2018-01-06T00:44:04.329Z,4.80
2018-01-06T00:46:33.898Z,3.73
2018-01-06T00:49:03.429Z,4.93
2018-01-06T00:51:32.975Z,3.37
2018-01-06T00:54:02.523Z,4.33
2018-01-06T00:56:32.098Z,4.03
2018-01-06T00:59:01.661Z,4.10
2018-01-06T01:01:31.217Z,4.30
2018-01-06T01:04:00.773Z,3.37
2018-01-06T01:06:30.317Z,3.27
2018-01-06T01:08:59.865Z,3.30
2018-01-06T01:11:29.427Z,2.90
2018-01-06T01:13:58.980Z,3.20
2018-01-06T01:16:28.554Z,2.87
2018-01-06T01:18:58.127Z,3.20
2018-01-06T01:21:27.704Z,2.83
2018-01-06T01:23:57.294Z,3.17
2018-01-06T01:26:26.850Z,2.73
2018-01-06T01:28:56.394Z,2.97
2018-01-06T01:31:25.936Z,2.97
2018-01-06T01:33:55.498Z,3.57
2018-01-06T01:36:25.067Z,3.33
2018-01-06T01:38:54.620Z,2.87
2018-01-06T01:41:24.182Z,3.17
2018-01-06T01:43:53.751Z,3.03
2018-01-06T01:46:23.343Z,3.53
2018-01-06T01:48:52.902Z,3.17
2018-01-06T01:51:22.471Z,3.00
2018-01-06T01:53:52.018Z,3.27
2018-01-06T01:56:21.584Z,3.40
2018-01-06T01:58:51.154Z,3.60
2018-01-06T02:01:20.700Z,3.27
2018-01-06T02:03:50.242Z,3.30
2018-01-06T02:06:19.825Z,3.10
2018-01-06T02:08:49.414Z,3.43
2018-01-06T02:14:06.346Z,3.23
2018-01-06T02:16:35.901Z,3.47
2018-01-06T02:19:05.476Z,3.30
2018-01-06T02:21:34.981Z,3.57
2018-01-06T02:24:04.558Z,3.70
2018-01-06T02:26:34.134Z,3.40
2018-01-06T02:29:03.692Z,3.43
2018-01-06T02:31:33.267Z,3.43
2018-01-06T02:34:02.821Z,3.23
2018-01-06T02:36:32.409Z,4.00
2018-01-06T02:39:01.990Z,3.33
2018-01-06T02:41:31.558Z,3.73
2018-01-06T02:44:01.102Z,3.30
2018-01-06T02:46:30.675Z,3.17
2018-01-06T02:49:00.222Z,3.37
2018-01-06T02:51:29.809Z,3.33
2018-01-06T02:53:59.378Z,3.27
2018-01-06T02:56:28.961Z,3.60
2018-01-06T02:58:58.506Z,3.23
2018-01-06T03:01:28.061Z,3.47
2018-01-06T03:03:57.587Z,3.40
2018-01-06T03:06:27.149Z,3.53
2018-01-06T03:08:56.693Z,3.93
2018-01-06T03:11:26.251Z,3.73
2018-01-06T03:13:55.813Z,3.17
2018-01-06T03:16:25.370Z,3.40
2018-01-06T03:18:54.931Z,3.33
2018-01-06T03:21:24.510Z,3.90
2018-01-06T03:23:54.037Z,3.50
2018-01-06T03:26:23.618Z,3.37
2018-01-06T03:28:53.174Z,3.77
2018-01-06T03:31:23.347Z,4.30
2018-01-06T03:33:52.995Z,3.40
2018-01-06T03:36:22.559Z,3.70
2018-01-06T03:38:52.155Z,3.60
2018-01-06T03:41:21.737Z,3.20
2018-01-06T03:43:51.293Z,3.10
2018-01-06T03:46:20.872Z,3.47
2018-01-06T03:48:50.425Z,3.77
2018-01-06T03:51:20.023Z,3.00
2018-01-06T03:53:49.590Z,2.90
2018-01-06T03:56:19.121Z,3.33
2018-01-06T03:58:48.674Z,2.90
2018-01-06T04:01:18.202Z,3.30
2018-01-06T04:03:47.759Z,3.20
2018-01-06T04:06:17.297Z,2.77
2018-01-06T04:08:46.833Z,2.50
2018-01-06T04:11:16.374Z,2.77
2018-01-06T04:13:45.938Z,2.80
2018-01-06T04:16:15.472Z,2.80
2018-01-06T04:18:45.014Z,3.13
2018-01-06T04:21:14.577Z,3.50
2018-01-06T04:23:44.170Z,3.27
2018-01-06T04:26:13.774Z,3.17
2018-01-06T04:28:43.319Z,3.30
2018-01-06T04:31:12.865Z,3.00
2018-01-06T04:33:42.425Z,2.87
2018-01-06T04:36:11.964Z,3.20
2018-01-06T04:38:41.502Z,2.80
2018-01-06T04:41:11.048Z,2.40
2018-01-06T04:43:40.616Z,3.17
2018-01-06T04:46:10.193Z,3.00
2018-01-06T04:48:39.740Z,3.30
2018-01-06T04:51:09.375Z,5.47
2018-01-06T04:53:39.066Z,4.03
2018-01-06T04:56:08.635Z,5.50
2018-01-06T04:58:38.178Z,6.77
2018-01-06T05:01:07.756Z,5.33
2018-01-06T05:03:37.312Z,4.73
2018-01-06T05:06:06.842Z,4.37
2018-01-06T05:08:36.412Z,4.80
2018-01-06T05:11:05.968Z,7.67
2018-01-06T05:13:35.535Z,7.10
2018-01-06T05:16:05.076Z,6.37
2018-01-06T05:18:34.635Z,6.70
2018-01-06T05:21:04.203Z,6.37
2018-01-06T05:23:33.757Z,6.10
2018-01-06T05:26:03.323Z,9.47
2018-01-06T05:28:32.901Z,7.23
2018-01-06T05:31:02.472Z,7.87
2018-01-06T05:33:32.000Z,8.53
2018-01-06T05:36:01.567Z,6.80
2018-01-06T05:38:31.123Z,6.80
2018-01-06T05:41:00.678Z,6.87
2018-01-06T05:43:30.250Z,7.93
2018-01-06T05:45:59.810Z,6.60
2018-01-06T05:48:29.344Z,6.73
2018-01-06T05:50:58.897Z,6.03
2018-01-06T05:53:28.481Z,6.53
2018-01-06T05:55:58.036Z,5.47
2018-01-06T05:58:27.594Z,6.60
2018-01-06T06:00:57.128Z,5.87
2018-01-06T06:03:26.729Z,5.90
2018-01-06T06:05:56.304Z,7.60
2018-01-06T06:08:25.958Z,6.67
2018-01-06T06:10:55.542Z,6.03
2018-01-06T06:13:25.042Z,6.73
2018-01-06T06:15:54.608Z,5.53
2018-01-06T06:18:24.166Z,5.57
2018-01-06T06:20:53.777Z,8.37
2018-01-06T06:23:23.356Z,9.33
2018-01-06T06:25:52.917Z,11.80
2018-01-06T06:28:22.449Z,8.27
2018-01-06T06:30:51.986Z,7.63
2018-01-06T06:33:21.529Z,6.40
2018-01-06T06:35:51.116Z,6.33
2018-01-06T06:38:20.714Z,6.37
2018-01-06T06:40:50.294Z,5.83
2018-01-06T06:43:19.855Z,6.00
2018-01-06T06:45:49.432Z,5.90
2018-01-06T06:48:18.985Z,7.77
2018-01-06T06:50:48.561Z,5.97
2018-01-06T06:53:18.109Z,7.80
2018-01-06T06:55:47.377Z,7.67
2018-01-06T06:58:16.655Z,6.50
2018-01-06T07:00:46.167Z,6.37
2018-01-06T07:03:15.735Z,5.80
2018-01-06T07:05:45.294Z,5.60
2018-01-06T07:08:14.884Z,7.23
2018-01-06T07:10:44.580Z,7.80
2018-01-06T07:13:14.151Z,5.40
2018-01-06T07:15:43.758Z,4.50
2018-01-06T07:18:13.299Z,4.50
2018-01-06T07:20:42.856Z,5.17
2018-01-06T07:23:12.432Z,4.63
2018-01-06T07:25:41.969Z,4.80
2018-01-06T07:28:11.502Z,4.60
2018-01-06T07:30:41.049Z,5.17
2018-01-06T07:33:10.613Z,6.33
2018-01-06T07:35:40.166Z,5.20
2018-01-06T07:38:09.730Z,5.13
2018-01-06T07:40:39.288Z,5.67
2018-01-06T07:43:08.856Z,6.30
2018-01-06T07:45:38.424Z,7.93
2018-01-06T07:48:07.970Z,6.63
2018-01-06T07:50:37.535Z,8.03
2018-01-06T07:53:07.096Z,7.17
2018-01-06T07:55:36.691Z,10.63
2018-01-06T07:58:06.260Z,8.00
2018-01-06T08:00:35.830Z,10.50
2018-01-06T08:03:05.399Z,8.60
2018-01-06T08:05:34.973Z,9.50
2018-01-06T08:08:04.546Z,8.33
2018-01-06T08:10:34.095Z,7.30
2018-01-06T08:13:03.690Z,6.93
2018-01-06T08:15:33.278Z,7.07
2018-01-06T08:18:02.862Z,6.20
2018-01-06T08:20:32.456Z,7.40
2018-01-06T08:23:09.797Z,6.77
2018-01-06T08:25:39.417Z,6.43
2018-01-06T08:28:08.849Z,8.10
2018-01-06T08:30:38.396Z,9.77
2018-01-06T08:33:07.983Z,8.97
2018-01-06T08:35:37.694Z,8.87
2018-01-06T08:38:07.265Z,12.97
2018-01-06T08:40:36.818Z,12.07
2018-01-06T08:43:06.374Z,10.77
2018-01-06T08:45:35.942Z,10.30
2018-01-06T08:48:05.519Z,6.43
2018-01-06T08:50:35.090Z,6.30
2018-01-06T08:53:04.665Z,6.40
2018-01-06T08:55:34.246Z,6.40
2018-01-06T08:58:03.840Z,6.87
2018-01-06T09:00:33.413Z,7.63
2018-01-06T09:03:02.985Z,7.97
2018-01-06T09:05:32.565Z,7.87
2018-01-06T09:08:02.325Z,6.23
2018-01-06T09:10:31.866Z,5.57
2018-01-06T09:13:01.444Z,5.90
2018-01-06T09:15:30.988Z,6.93
2018-01-06T09:18:00.570Z,6.10
2018-01-06T09:20:30.141Z,6.40
2018-01-06T09:22:59.767Z,9.00
2018-01-06T09:25:29.335Z,10.17
2018-01-06T09:27:58.952Z,8.73
2018-01-06T09:30:28.501Z,7.60
2018-01-06T09:32:58.141Z,9.00
2018-01-06T09:35:27.713Z,9.40
2018-01-06T09:37:57.285Z,10.67
2018-01-06T09:40:26.870Z,10.80
2018-01-06T09:42:56.442Z,10.23
2018-01-06T09:45:37.943Z,10.00
2018-01-06T09:48:07.520Z,13.80
2018-01-06T09:50:37.074Z,10.67
2018-01-06T09:53:06.654Z,11.70
2018-01-06T09:55:36.212Z,13.30
2018-01-06T09:58:06.800Z,10.53
2018-01-06T10:00:36.397Z,9.80
2018-01-06T10:03:06.011Z,8.93
2018-01-06T10:05:35.586Z,9.73
2018-01-06T10:08:05.149Z,9.23
2018-01-06T10:10:34.702Z,8.87
2018-01-06T10:13:04.301Z,8.93
2018-01-06T10:15:33.896Z,7.97
2018-01-06T10:18:03.470Z,7.80
2018-01-06T10:20:33.050Z,7.10
2018-01-06T10:23:02.606Z,6.93
2018-01-06T10:25:32.253Z,6.90
2018-01-06T10:28:01.822Z,7.17
2018-01-06T10:30:31.401Z,6.47
2018-01-06T10:33:00.934Z,6.70
2018-01-06T10:35:30.482Z,6.30
2018-01-06T10:38:00.055Z,6.10
2018-01-06T10:40:29.670Z,5.40
2018-01-06T10:43:00.241Z,5.30
2018-01-06T10:45:46.613Z,5.13
2018-01-06T10:48:16.137Z,5.10
2018-01-06T10:50:46.691Z,5.90
2018-01-06T10:53:20.610Z,6.07
2018-01-06T10:55:52.238Z,4.53
2018-01-06T10:58:21.824Z,5.63
2018-01-06T11:01:01.693Z,5.00
2018-01-06T11:03:31.325Z,5.33
2018-01-06T11:06:00.931Z,5.17
2018-01-06T11:08:30.529Z,4.53
2018-01-06T11:11:00.062Z,4.63
2018-01-06T11:13:29.735Z,4.37
2018-01-06T11:16:03.353Z,4.40
2018-01-06T11:18:40.316Z,5.23
2018-01-06T11:21:15.296Z,5.63
2018-01-06T11:23:44.894Z,5.43
2018-01-06T11:26:14.601Z,5.83
2018-01-06T11:28:45.780Z,5.57
2018-01-06T11:31:15.493Z,6.17
2018-01-06T11:33:45.079Z,6.67
2018-01-06T11:36:14.664Z,6.37
2018-01-06T11:38:44.260Z,6.70
2018-01-06T11:41:13.844Z,5.73
2018-01-06T11:43:43.409Z,6.07
2018-01-06T11:46:12.970Z,5.93
2018-01-06T11:48:59.456Z,6.10
2018-01-06T11:51:29.054Z,5.27
2018-01-06T11:53:58.613Z,5.30
2018-01-06T11:56:28.142Z,5.80
2018-01-06T11:58:57.717Z,5.93
2018-01-06T12:01:27.012Z,5.43
2018-01-06T12:03:56.583Z,5.77
2018-01-06T12:06:26.198Z,5.97
2018-01-06T12:08:57.611Z,5.33
2018-01-06T12:11:26.212Z,5.43
2018-01-06T12:13:54.722Z,5.50
2018-01-06T12:16:23.299Z,5.70
2018-01-06T12:18:51.851Z,5.07
2018-01-06T12:21:20.387Z,5.77
2018-01-06T12:23:49.704Z,5.30
2018-01-06T12:26:18.306Z,5.77
2018-01-06T12:28:46.822Z,8.80
2018-01-06T12:31:15.347Z,6.13
2018-01-06T12:33:44.649Z,7.17
2018-01-06T12:36:13.940Z,6.50
2018-01-06T12:38:43.251Z,6.13
2018-01-06T12:41:12.659Z,6.97
2018-01-06T12:43:41.146Z,6.83
2018-01-06T12:46:09.690Z,7.93
2018-01-06T12:48:38.231Z,6.53
2018-01-06T12:51:07.542Z,6.27
2018-01-06T12:53:36.111Z,5.87
2018-01-06T12:56:04.659Z,6.00
2018-01-06T12:58:33.970Z,6.20
2018-01-06T13:01:02.595Z,7.60
2018-01-06T13:03:31.158Z,6.63
2018-01-06T13:05:59.686Z,6.23
2018-01-06T13:08:28.267Z,5.10
2018-01-06T13:10:56.798Z,5.10
2018-01-06T13:13:25.362Z,7.07
2018-01-06T13:15:53.943Z,7.73
2018-01-06T13:18:23.088Z,7.83
2018-01-06T13:20:51.654Z,5.80
2018-01-06T13:23:20.209Z,5.67
2018-01-06T13:25:49.561Z,5.63
2018-01-06T13:28:18.058Z,5.17
2018-01-06T13:30:46.641Z,5.00
2018-01-06T13:33:15.232Z,5.40
2018-01-06T13:35:43.806Z,5.70
2018-01-06T13:38:12.375Z,5.33
2018-01-06T13:40:40.915Z,4.80
2018-01-06T13:43:09.447Z,4.80
2018-01-06T13:45:38.013Z,4.70
2018-01-06T13:48:06.598Z,4.73
2018-01-06T13:50:35.162Z,4.10
2018-01-06T13:53:03.758Z,4.87
2018-01-06T13:55:32.351Z,4.00
2018-01-06T13:58:00.891Z,4.37
2018-01-06T14:00:29.446Z,4.23
2018-01-06T14:02:58.051Z,4.60
2018-01-06T14:05:27.366Z,4.63
2018-01-06T14:07:55.770Z,6.17
2018-01-06T14:10:24.348Z,6.83
2018-01-06T14:12:52.883Z,6.20
2018-01-06T14:15:21.453Z,8.90
2018-01-06T14:17:50.000Z,6.50
2018-01-06T14:20:18.511Z,6.53
2018-01-06T14:22:47.042Z,5.83
2018-01-06T14:28:28.399Z,5.57
2018-01-06T14:30:56.643Z,5.50
2018-01-06T14:33:25.178Z,5.50
2018-01-06T14:35:53.709Z,5.23
2018-01-06T14:38:22.266Z,5.73
2018-01-06T14:40:50.783Z,5.83
2018-01-06T14:43:19.359Z,6.17
2018-01-06T14:45:47.923Z,5.50
2018-01-06T14:48:16.454Z,6.00
2018-01-06T14:50:45.009Z,6.10
2018-01-06T14:53:13.578Z,6.57
2018-01-06T14:55:42.112Z,7.30
2018-01-06T14:58:11.443Z,7.00
2018-01-06T15:00:40.023Z,7.67
2018-01-06T15:03:08.570Z,8.63
2018-01-06T15:05:37.918Z,8.67
2018-01-06T15:08:09.948Z,7.97
2018-01-06T15:10:38.534Z,9.70
2018-01-06T15:13:07.839Z,11.33
2018-01-06T15:15:36.394Z,12.83
2018-01-06T15:18:04.963Z,12.63
2018-01-06T15:20:36.983Z,9.77
2018-01-06T15:23:05.535Z,8.57
2018-01-06T15:25:34.114Z,14.80
2018-01-06T15:28:02.630Z,9.90
2018-01-06T15:30:31.229Z,7.53
2018-01-06T15:32:59.792Z,7.47
2018-01-06T15:35:28.367Z,7.47
2018-01-06T15:37:57.690Z,7.20
2018-01-06T15:40:26.238Z,6.50
2018-01-06T15:42:55.547Z,6.60
2018-01-06T15:45:24.366Z,7.20
2018-01-06T15:47:52.914Z,5.97
2018-01-06T15:50:22.296Z,6.90
2018-01-06T15:52:50.886Z,6.00
2018-01-06T15:55:20.364Z,6.47
2018-01-06T15:57:48.900Z,5.87
2018-01-06T16:00:18.210Z,5.57
2018-01-06T16:02:46.735Z,6.23
2018-01-06T16:05:15.275Z,7.43
2018-01-06T16:07:44.035Z,6.13
2018-01-06T16:10:12.715Z,7.27
2018-01-06T16:12:42.930Z,7.43
2018-01-06T16:15:11.511Z,8.30
2018-01-06T16:17:40.072Z,8.27
2018-01-06T16:20:08.679Z,8.03
2018-01-06T16:22:38.003Z,8.67
2018-01-06T16:25:07.282Z,7.33
2018-01-06T16:27:36.598Z,9.00
2018-01-06T16:30:05.922Z,9.50
2018-01-06T16:32:34.439Z,9.97
2018-01-06T16:35:03.037Z,10.87
2018-01-06T16:37:31.581Z,9.10
2018-01-06T16:40:00.116Z,8.90
2018-01-06T16:42:28.662Z,7.77
2018-01-06T16:44:57.183Z,8.40
2018-01-06T16:47:26.514Z,8.57
2018-01-06T16:49:55.072Z,11.40
2018-01-06T16:52:24.433Z,12.37
2018-01-06T16:54:53.886Z,12.37
2018-01-06T16:57:23.250Z,22.63
2018-01-06T16:59:51.789Z,16.63
2018-01-06T17:02:20.326Z,21.67
2018-01-06T17:04:49.682Z,20.33
2018-01-06T17:07:18.272Z,22.73
2018-01-06T17:09:46.798Z,17.97
2018-01-06T17:12:15.363Z,30.20
2018-01-06T17:14:43.899Z,31.57
2018-01-06T17:17:12.467Z,18.57
2018-01-06T17:19:41.019Z,12.27
2018-01-06T17:22:09.614Z,13.03
2018-01-06T17:24:38.103Z,12.77
2018-01-06T17:27:07.449Z,12.37
2018-01-06T17:29:36.011Z,12.00
2018-01-06T17:32:04.509Z,12.03
2018-01-06T17:34:45.638Z,11.27
2018-01-06T17:37:14.205Z,11.00
2018-01-06T17:39:42.711Z,10.73
2018-01-06T17:42:12.051Z,12.47
2018-01-06T17:44:40.596Z,14.73
2018-01-06T17:47:09.138Z,11.37
2018-01-06T17:49:37.717Z,4.60
2018-01-06T17:52:06.263Z,3.93
2018-01-06T17:54:35.547Z,3.47
2018-01-06T17:57:04.917Z,4.90
2018-01-06T17:59:33.466Z,3.60
2018-01-06T18:02:02.000Z,2.90
2018-01-06T18:04:30.556Z,3.60
2018-01-06T18:06:59.086Z,3.97
2018-01-06T18:09:28.372Z,4.33
2018-01-06T18:11:56.939Z,3.97
2018-01-06T18:14:25.469Z,3.77
2018-01-06T18:16:53.946Z,4.00
2018-01-06T18:19:22.454Z,4.40
2018-01-06T18:21:50.990Z,4.13
2018-01-06T18:24:20.314Z,4.37
2018-01-06T18:26:48.875Z,3.87
2018-01-06T18:29:18.183Z,4.03
2018-01-06T18:31:47.483Z,4.03
2018-01-06T18:34:16.771Z,4.67
2018-01-06T18:36:46.094Z,4.17
2018-01-06T18:39:14.671Z,4.90
2018-01-06T18:41:43.955Z,5.43
2018-01-06T18:44:13.254Z,4.13
2018-01-06T18:46:42.578Z,5.23
2018-01-06T18:49:11.148Z,4.63
2018-01-06T18:51:40.466Z,5.37
2018-01-06T18:54:09.039Z,5.87
2018-01-06T18:56:37.528Z,5.23
2018-01-06T18:59:06.069Z,5.00
2018-01-06T19:01:34.636Z,5.07
2018-01-06T19:04:03.171Z,4.87
2018-01-06T19:06:31.716Z,4.90
2018-01-06T19:09:00.235Z,5.87
2018-01-06T19:11:28.755Z,6.93
2018-01-06T19:13:57.402Z,6.70
2018-01-06T19:16:25.985Z,8.20
2018-01-06T19:18:54.539Z,10.67
2018-01-06T19:21:23.089Z,17.03
2018-01-06T19:23:51.619Z,13.23
2018-01-06T19:26:20.930Z,7.87
2018-01-06T19:28:49.454Z,9.93
2018-01-06T19:31:18.042Z,11.13
2018-01-06T19:33:46.567Z,11.43
2018-01-06T19:36:15.876Z,7.80
2018-01-06T19:38:44.438Z,7.70
2018-01-06T19:41:12.970Z,7.10
2018-01-06T19:43:41.521Z,8.23
2018-01-06T19:46:10.839Z,7.47
2018-01-06T19:48:39.376Z,7.83
2018-01-06T19:51:07.922Z,7.03
2018-01-06T19:53:36.451Z,8.83
2018-01-06T19:56:05.773Z,11.13
2018-01-06T19:58:34.322Z,11.60
2018-01-06T20:01:02.890Z,10.20
2018-01-06T20:03:31.389Z,14.57
2018-01-06T20:05:59.936Z,9.33
2018-01-06T20:08:28.508Z,11.10
2018-01-06T20:10:57.773Z,13.13
2018-01-06T20:13:27.253Z,9.17
2018-01-06T20:15:55.792Z,12.23
2018-01-06T20:18:24.303Z,8.77
2018-01-06T20:20:52.860Z,10.93
2018-01-06T20:23:21.406Z,10.47
2018-01-06T20:26:00.150Z,12.53
2018-01-06T20:28:28.674Z,11.40
2018-01-06T20:30:57.189Z,12.03
2018-01-06T20:33:26.521Z,11.23
2018-01-06T20:35:55.095Z,12.77
2018-01-06T20:38:23.609Z,13.13
2018-01-06T20:40:52.191Z,12.73
2018-01-06T20:43:20.743Z,13.50
2018-01-06T20:45:49.310Z,13.97
2018-01-06T20:48:18.640Z,14.07
2018-01-06T20:50:47.186Z,12.07
2018-01-06T20:53:16.508Z,13.93
2018-01-06T20:55:45.065Z,12.80
2018-01-06T20:58:13.595Z,13.00
2018-01-06T21:00:42.132Z,12.60
2018-01-06T21:03:11.461Z,12.20
2018-01-06T21:05:40.015Z,15.30
2018-01-06T21:08:08.781Z,14.97
2018-01-06T21:10:37.347Z,13.77
2018-01-06T21:13:05.911Z,12.37
2018-01-06T21:15:34.441Z,14.33
2018-01-06T21:18:02.994Z,13.03
2018-01-06T21:20:31.590Z,11.67
2018-01-06T21:23:00.113Z,18.33
2018-01-06T21:25:29.452Z,12.03
2018-01-06T21:27:58.002Z,16.03
2018-01-06T21:30:26.536Z,13.70
2018-01-06T21:32:55.079Z,11.50
2018-01-06T21:35:23.642Z,11.00
2018-01-06T21:37:52.142Z,17.57
2018-01-06T21:40:20.702Z,15.07
2018-01-06T21:42:50.014Z,15.07
2018-01-06T21:45:18.558Z,14.67
2018-01-06T21:47:47.164Z,13.93
2018-01-06T21:50:16.484Z,13.33
2018-01-06T21:52:45.036Z,14.40
2018-01-06T21:55:13.607Z,15.70
2018-01-06T21:57:42.195Z,14.50
2018-01-06T22:00:10.759Z,13.80
2018-01-06T22:02:39.326Z,14.60
2018-01-06T22:05:07.895Z,13.80
2018-01-06T22:07:36.464Z,14.77
2018-01-06T22:10:04.990Z,11.10
2018-01-06T22:12:33.550Z,12.57
2018-01-06T22:15:02.072Z,13.37
2018-01-06T22:17:30.640Z,14.60
2018-01-06T22:19:59.207Z,10.37
2018-01-06T22:22:27.774Z,12.53
2018-01-06T22:24:56.331Z,13.20
2018-01-06T22:27:25.638Z,13.23
2018-01-06T22:29:54.195Z,12.27
2018-01-06T22:32:22.749Z,14.43
2018-01-06T22:34:51.523Z,12.73
2018-01-06T22:37:20.627Z,11.93
2018-01-06T22:39:49.188Z,12.40
2018-01-06T22:42:17.744Z,14.77
2018-01-06T22:44:46.276Z,14.93
2018-01-06T22:47:14.818Z,10.43
2018-01-06T22:49:53.978Z,10.57
2018-01-06T22:52:22.550Z,9.23
2018-01-06T22:54:52.170Z,10.67
2018-01-06T22:57:38.726Z,10.10
2018-01-06T23:00:13.228Z,19.63
2018-01-06T23:02:41.774Z,11.00
2018-01-06T23:05:10.310Z,9.37
2018-01-06T23:07:39.603Z,11.27
2018-01-06T23:10:09.011Z,12.10
2018-01-06T23:12:38.317Z,9.07
2018-01-06T23:15:07.627Z,8.50
2018-01-06T23:17:36.147Z,8.07
2018-01-06T23:20:04.686Z,12.43
2018-01-06T23:22:33.958Z,13.77
2018-01-06T23:25:02.498Z,9.33
2018-01-06T23:27:31.088Z,11.80
2018-01-06T23:29:59.470Z,7.80
2018-01-06T23:32:28.007Z,8.63
2018-01-06T23:34:57.313Z,8.03
2018-01-06T23:37:26.605Z,9.43
2018-01-06T23:39:55.153Z,9.43
2018-01-06T23:42:23.707Z,5.03
2018-01-06T23:44:52.253Z,6.00
2018-01-06T23:47:21.584Z,6.63
2018-01-06T23:49:50.126Z,9.10
2018-01-06T23:52:18.653Z,8.23
2018-01-06T23:54:47.221Z,12.33
2018-01-06T23:57:15.878Z,5.60
2018-01-06T23:59:44.362Z,7.63
